sensor_id;sensor_type;location;lat;lon;timestamp;P1;durP1;ratioP1;P2;durP2;ratioP2
4885;SDS011;2457;51.788;6.136;2023-02-28T00:01:51;10.07;;;4.47;;
4885;SDS011;2457;51.788;6.136;2023-02-28T00:04:19;9.03;;;3.30;;
4885;SDS011;2457;51.788;6.136;2023-02-28T00:06:46;7.43;;;3.47;;
4885;SDS011;2457;51.788;6.136;2023-02-28T00:09:13;7.33;;;3.10;;
4885;SDS011;2457;51.788;6.136;2023-02-28T00:11:40;10.00;;;3.83;;
4885;SDS011;2457;51.788;6.136;2023-02-28T00:14:08;8.33;;;3.53;;
4885;SDS011;2457;51.788;6.136;2023-02-28T00:16:35;5.90;;;3.57;;
4885;SDS011;2457;51.788;6.136;2023-02-28T00:19:02;7.27;;;3.47;;
4885;SDS011;2457;51.788;6.136;2023-02-28T00:21:29;6.30;;;3.73;;
4885;SDS011;2457;51.788;6.136;2023-02-28T00:23:57;7.40;;;3.23;;
4885;SDS011;2457;51.788;6.136;2023-02-28T00:26:24;9.30;;;3.80;;
4885;SDS011;2457;51.788;6.136;2023-02-28T00:28:51;7.97;;;3.23;;
4885;SDS011;2457;51.788;6.136;2023-02-28T00:31:19;9.17;;;3.87;;
4885;SDS011;2457;51.788;6.136;2023-02-28T00:33:46;12.93;;;5.30;;
4885;SDS011;2457;51.788;6.136;2023-02-28T00:36:13;18.53;;;7.07;;
4885;SDS011;2457;51.788;6.136;2023-02-28T00:38:41;15.70;;;7.00;;
4885;SDS011;2457;51.788;6.136;2023-02-28T00:41:08;8.30;;;3.77;;
4885;SDS011;2457;51.788;6.136;2023-02-28T00:43:36;6.60;;;3.20;;
4885;SDS011;2457;51.788;6.136;2023-02-28T00:46:04;10.07;;;3.77;;
4885;SDS011;2457;51.788;6.136;2023-02-28T00:48:31;6.53;;;3.40;;
4885;SDS011;2457;51.788;6.136;2023-02-28T00:50:59;7.00;;;3.00;;
4885;SDS011;2457;51.788;6.136;2023-02-28T00:53:26;7.43;;;3.57;;
4885;SDS011;2457;51.788;6.136;2023-02-28T00:55:53;6.63;;;3.23;;
4885;SDS011;2457;51.788;6.136;2023-02-28T00:58:20;6.10;;;3.03;;
4885;SDS011;2457;51.788;6.136;2023-02-28T01:00:48;7.20;;;3.53;;
4885;SDS011;2457;51.788;6.136;2023-02-28T01:03:16;6.10;;;3.27;;
4885;SDS011;2457;51.788;6.136;2023-02-28T01:05:43;7.60;;;3.40;;
4885;SDS011;2457;51.788;6.136;2023-02-28T01:08:11;5.70;;;3.30;;
4885;SDS011;2457;51.788;6.136;2023-02-28T01:10:38;6.90;;;3.20;;
4885;SDS011;2457;51.788;6.136;2023-02-28T01:13:05;7.03;;;3.70;;
4885;SDS011;2457;51.788;6.136;2023-02-28T01:15:33;7.27;;;3.93;;
4885;SDS011;2457;51.788;6.136;2023-02-28T01:18:00;6.80;;;3.50;;
4885;SDS011;2457;51.788;6.136;2023-02-28T01:20:27;6.00;;;3.17;;
4885;SDS011;2457;51.788;6.136;2023-02-28T01:22:54;10.73;;;3.40;;
4885;SDS011;2457;51.788;6.136;2023-02-28T01:25:22;7.27;;;3.57;;
4885;SDS011;2457;51.788;6.136;2023-02-28T01:27:49;7.90;;;3.67;;
4885;SDS011;2457;51.788;6.136;2023-02-28T01:30:16;6.57;;;3.30;;
4885;SDS011;2457;51.788;6.136;2023-02-28T01:32:43;5.40;;;3.40;;
4885;SDS011;2457;51.788;6.136;2023-02-28T01:35:11;7.43;;;4.20;;
4885;SDS011;2457;51.788;6.136;2023-02-28T01:37:38;12.03;;;4.03;;
4885;SDS011;2457;51.788;6.136;2023-02-28T01:40:05;7.17;;;3.30;;
4885;SDS011;2457;51.788;6.136;2023-02-28T01:42:33;6.40;;;3.23;;
4885;SDS011;2457;51.788;6.136;2023-02-28T01:45:03;7.53;;;4.00;;
4885;SDS011;2457;51.788;6.136;2023-02-28T01:47:34;6.33;;;3.43;;
4885;SDS011;2457;51.788;6.136;2023-02-28T01:49:58;7.03;;;3.80;;
4885;SDS011;2457;51.788;6.136;2023-02-28T01:52:26;6.33;;;3.20;;
4885;SDS011;2457;51.788;6.136;2023-02-28T01:54:57;7.70;;;3.60;;
4885;SDS011;2457;51.788;6.136;2023-02-28T01:57:27;7.53;;;3.57;;
4885;SDS011;2457;51.788;6.136;2023-02-28T02:00:04;5.60;;;3.23;;
4885;SDS011;2457;51.788;6.136;2023-02-28T02:02:24;9.17;;;3.77;;
4885;SDS011;2457;51.788;6.136;2023-02-28T02:04:54;7.90;;;3.40;;
4885;SDS011;2457;51.788;6.136;2023-02-28T02:07:21;8.93;;;3.70;;
4885;SDS011;2457;51.788;6.136;2023-02-28T02:09:48;7.90;;;3.90;;
4885;SDS011;2457;51.788;6.136;2023-02-28T02:12:24;8.50;;;3.83;;
4885;SDS011;2457;51.788;6.136;2023-02-28T02:14:53;7.70;;;3.70;;
4885;SDS011;2457;51.788;6.136;2023-02-28T02:17:28;8.53;;;3.57;;
4885;SDS011;2457;51.788;6.136;2023-02-28T02:33:10;7.17;;;3.23;;
4885;SDS011;2457;51.788;6.136;2023-02-28T02:35:37;11.80;;;4.40;;
4885;SDS011;2457;51.788;6.136;2023-02-28T02:38:08;7.00;;;3.20;;
4885;SDS011;2457;51.788;6.136;2023-02-28T02:40:36;11.10;;;3.80;;
4885;SDS011;2457;51.788;6.136;2023-02-28T02:43:06;6.17;;;3.37;;
4885;SDS011;2457;51.788;6.136;2023-02-28T02:45:34;8.23;;;3.90;;
4885;SDS011;2457;51.788;6.136;2023-02-28T02:48:03;8.50;;;3.50;;
4885;SDS011;2457;51.788;6.136;2023-02-28T02:50:36;6.63;;;3.50;;
4885;SDS011;2457;51.788;6.136;2023-02-28T02:53:00;7.13;;;3.00;;
4885;SDS011;2457;51.788;6.136;2023-02-28T02:55:28;5.53;;;3.07;;
4885;SDS011;2457;51.788;6.136;2023-02-28T02:58:02;7.50;;;3.80;;
4885;SDS011;2457;51.788;6.136;2023-02-28T03:00:27;6.93;;;3.37;;
4885;SDS011;2457;51.788;6.136;2023-02-28T03:02:54;7.03;;;3.53;;
4885;SDS011;2457;51.788;6.136;2023-02-28T03:05:26;5.67;;;3.30;;
4885;SDS011;2457;51.788;6.136;2023-02-28T03:07:50;5.40;;;3.10;;
4885;SDS011;2457;51.788;6.136;2023-02-28T03:10:32;7.53;;;3.60;;
4885;SDS011;2457;51.788;6.136;2023-02-28T03:15:30;6.00;;;3.30;;
4885;SDS011;2457;51.788;6.136;2023-02-28T03:18:04;6.90;;;3.40;;
4885;SDS011;2457;51.788;6.136;2023-02-28T03:23:16;6.83;;;3.33;;
4885;SDS011;2457;51.788;6.136;2023-02-28T03:25:52;4.80;;;2.80;;
4885;SDS011;2457;51.788;6.136;2023-02-28T03:31:15;6.30;;;3.50;;
4885;SDS011;2457;51.788;6.136;2023-02-28T03:33:42;10.40;;;3.50;;
4885;SDS011;2457;51.788;6.136;2023-02-28T03:36:10;8.67;;;3.20;;
4885;SDS011;2457;51.788;6.136;2023-02-28T03:38:44;4.93;;;2.83;;
4885;SDS011;2457;51.788;6.136;2023-02-28T03:41:10;5.97;;;3.13;;
4885;SDS011;2457;51.788;6.136;2023-02-28T03:43:37;6.57;;;3.27;;
4885;SDS011;2457;51.788;6.136;2023-02-28T03:46:06;6.17;;;3.10;;
4885;SDS011;2457;51.788;6.136;2023-02-28T03:48:42;6.47;;;2.90;;
4885;SDS011;2457;51.788;6.136;2023-02-28T03:51:05;5.60;;;3.13;;
4885;SDS011;2457;51.788;6.136;2023-02-28T03:53:42;9.30;;;3.43;;
4885;SDS011;2457;51.788;6.136;2023-02-28T03:56:13;5.83;;;2.87;;
4885;SDS011;2457;51.788;6.136;2023-02-28T03:59:01;5.40;;;2.60;;
4885;SDS011;2457;51.788;6.136;2023-02-28T04:01:32;9.53;;;3.60;;
4885;SDS011;2457;51.788;6.136;2023-02-28T04:03:59;7.90;;;3.43;;
4885;SDS011;2457;51.788;6.136;2023-02-28T04:06:26;5.67;;;2.80;;
4885;SDS011;2457;51.788;6.136;2023-02-28T04:08:54;6.67;;;3.20;;
4885;SDS011;2457;51.788;6.136;2023-02-28T04:11:22;6.80;;;3.10;;
4885;SDS011;2457;51.788;6.136;2023-02-28T04:13:50;7.00;;;3.30;;
4885;SDS011;2457;51.788;6.136;2023-02-28T04:16:18;5.70;;;2.97;;
4885;SDS011;2457;51.788;6.136;2023-02-28T04:18:45;5.80;;;2.97;;
4885;SDS011;2457;51.788;6.136;2023-02-28T04:21:12;4.20;;;2.37;;
4885;SDS011;2457;51.788;6.136;2023-02-28T04:23:40;5.53;;;2.83;;
4885;SDS011;2457;51.788;6.136;2023-02-28T04:26:07;6.50;;;2.77;;
4885;SDS011;2457;51.788;6.136;2023-02-28T04:28:36;6.37;;;3.07;;
4885;SDS011;2457;51.788;6.136;2023-02-28T04:31:03;6.07;;;3.27;;
4885;SDS011;2457;51.788;6.136;2023-02-28T04:33:31;5.37;;;2.80;;
4885;SDS011;2457;51.788;6.136;2023-02-28T04:36:03;6.17;;;2.90;;
4885;SDS011;2457;51.788;6.136;2023-02-28T04:38:32;6.50;;;3.33;;
4885;SDS011;2457;51.788;6.136;2023-02-28T04:40:58;5.80;;;3.20;;
4885;SDS011;2457;51.788;6.136;2023-02-28T04:43:26;5.57;;;2.57;;
4885;SDS011;2457;51.788;6.136;2023-02-28T04:45:54;6.80;;;2.77;;
4885;SDS011;2457;51.788;6.136;2023-02-28T04:48:27;4.83;;;2.67;;
4885;SDS011;2457;51.788;6.136;2023-02-28T04:50:54;6.13;;;2.63;;
4885;SDS011;2457;51.788;6.136;2023-02-28T04:53:22;6.40;;;3.03;;
4885;SDS011;2457;51.788;6.136;2023-02-28T04:55:49;6.20;;;3.30;;
4885;SDS011;2457;51.788;6.136;2023-02-28T04:58:16;8.20;;;3.10;;
4885;SDS011;2457;51.788;6.136;2023-02-28T05:00:43;6.97;;;2.90;;
4885;SDS011;2457;51.788;6.136;2023-02-28T05:03:11;5.33;;;3.03;;
4885;SDS011;2457;51.788;6.136;2023-02-28T05:05:38;6.60;;;3.10;;
4885;SDS011;2457;51.788;6.136;2023-02-28T05:08:05;5.20;;;2.30;;
4885;SDS011;2457;51.788;6.136;2023-02-28T05:10:32;4.80;;;2.70;;
4885;SDS011;2457;51.788;6.136;2023-02-28T05:12:59;4.63;;;2.73;;
4885;SDS011;2457;51.788;6.136;2023-02-28T05:15:27;5.40;;;2.53;;
4885;SDS011;2457;51.788;6.136;2023-02-28T05:17:54;6.73;;;2.60;;
4885;SDS011;2457;51.788;6.136;2023-02-28T05:20:21;6.20;;;3.37;;
4885;SDS011;2457;51.788;6.136;2023-02-28T05:22:49;8.20;;;2.50;;
4885;SDS011;2457;51.788;6.136;2023-02-28T05:25:17;11.43;;;2.50;;
4885;SDS011;2457;51.788;6.136;2023-02-28T05:27:45;5.27;;;3.20;;
4885;SDS011;2457;51.788;6.136;2023-02-28T05:30:12;6.90;;;2.80;;
4885;SDS011;2457;51.788;6.136;2023-02-28T05:32:40;6.17;;;3.27;;
4885;SDS011;2457;51.788;6.136;2023-02-28T05:35:10;4.30;;;2.50;;
4885;SDS011;2457;51.788;6.136;2023-02-28T05:37:38;5.17;;;2.63;;
4885;SDS011;2457;51.788;6.136;2023-02-28T05:40:06;5.10;;;2.90;;
4885;SDS011;2457;51.788;6.136;2023-02-28T05:42:35;5.37;;;2.87;;
4885;SDS011;2457;51.788;6.136;2023-02-28T05:45:03;6.57;;;3.10;;
4885;SDS011;2457;51.788;6.136;2023-02-28T05:47:31;10.33;;;3.10;;
4885;SDS011;2457;51.788;6.136;2023-02-28T05:49:58;5.33;;;3.13;;
4885;SDS011;2457;51.788;6.136;2023-02-28T05:52:26;6.83;;;2.80;;
4885;SDS011;2457;51.788;6.136;2023-02-28T05:54:54;5.17;;;2.40;;
4885;SDS011;2457;51.788;6.136;2023-02-28T05:57:21;7.30;;;2.93;;
4885;SDS011;2457;51.788;6.136;2023-02-28T05:59:49;7.90;;;2.80;;
4885;SDS011;2457;51.788;6.136;2023-02-28T06:02:16;6.80;;;3.30;;
4885;SDS011;2457;51.788;6.136;2023-02-28T06:04:44;5.63;;;2.50;;
4885;SDS011;2457;51.788;6.136;2023-02-28T06:07:12;8.90;;;3.10;;
4885;SDS011;2457;51.788;6.136;2023-02-28T06:09:39;5.90;;;3.00;;
4885;SDS011;2457;51.788;6.136;2023-02-28T06:12:06;9.40;;;3.60;;
4885;SDS011;2457;51.788;6.136;2023-02-28T06:14:35;7.10;;;3.17;;
4885;SDS011;2457;51.788;6.136;2023-02-28T06:17:03;6.40;;;3.67;;
4885;SDS011;2457;51.788;6.136;2023-02-28T06:19:30;5.50;;;3.00;;
4885;SDS011;2457;51.788;6.136;2023-02-28T06:21:58;7.40;;;3.10;;
4885;SDS011;2457;51.788;6.136;2023-02-28T06:24:26;7.70;;;3.40;;
4885;SDS011;2457;51.788;6.136;2023-02-28T06:26:57;8.23;;;2.70;;
4885;SDS011;2457;51.788;6.136;2023-02-28T06:29:26;7.30;;;3.83;;
4885;SDS011;2457;51.788;6.136;2023-02-28T06:31:53;5.17;;;2.70;;
4885;SDS011;2457;51.788;6.136;2023-02-28T06:34:20;6.47;;;3.17;;
4885;SDS011;2457;51.788;6.136;2023-02-28T06:36:49;8.90;;;3.00;;
4885;SDS011;2457;51.788;6.136;2023-02-28T06:39:17;6.80;;;3.00;;
4885;SDS011;2457;51.788;6.136;2023-02-28T06:41:44;8.03;;;3.20;;
4885;SDS011;2457;51.788;6.136;2023-02-28T06:44:18;6.33;;;2.73;;
4885;SDS011;2457;51.788;6.136;2023-02-28T06:46:42;7.37;;;3.20;;
4885;SDS011;2457;51.788;6.136;2023-02-28T06:49:10;6.37;;;2.83;;
4885;SDS011;2457;51.788;6.136;2023-02-28T06:51:38;6.07;;;3.30;;
4885;SDS011;2457;51.788;6.136;2023-02-28T06:54:06;7.10;;;3.37;;
4885;SDS011;2457;51.788;6.136;2023-02-28T06:56:35;4.80;;;2.67;;
4885;SDS011;2457;51.788;6.136;2023-02-28T06:59:02;10.30;;;3.10;;
4885;SDS011;2457;51.788;6.136;2023-02-28T07:01:30;5.30;;;2.77;;
4885;SDS011;2457;51.788;6.136;2023-02-28T07:03:59;7.87;;;3.90;;
4885;SDS011;2457;51.788;6.136;2023-02-28T07:06:27;8.07;;;4.13;;
4885;SDS011;2457;51.788;6.136;2023-02-28T07:08:54;6.10;;;3.27;;
4885;SDS011;2457;51.788;6.136;2023-02-28T07:11:22;5.37;;;3.03;;
4885;SDS011;2457;51.788;6.136;2023-02-28T07:13:52;6.67;;;2.73;;
4885;SDS011;2457;51.788;6.136;2023-02-28T07:16:19;7.90;;;2.63;;
4885;SDS011;2457;51.788;6.136;2023-02-28T07:18:47;5.43;;;2.70;;
4885;SDS011;2457;51.788;6.136;2023-02-28T07:21:14;3.90;;;2.00;;
4885;SDS011;2457;51.788;6.136;2023-02-28T07:23:41;8.57;;;2.47;;
4885;SDS011;2457;51.788;6.136;2023-02-28T07:26:11;5.00;;;2.20;;
4885;SDS011;2457;51.788;6.136;2023-02-28T07:28:39;5.33;;;2.67;;
4885;SDS011;2457;51.788;6.136;2023-02-28T07:31:06;4.83;;;2.23;;
4885;SDS011;2457;51.788;6.136;2023-02-28T07:33:34;5.00;;;2.07;;
4885;SDS011;2457;51.788;6.136;2023-02-28T07:36:02;7.13;;;2.30;;
4885;SDS011;2457;51.788;6.136;2023-02-28T07:38:30;5.37;;;2.37;;
4885;SDS011;2457;51.788;6.136;2023-02-28T07:40:58;5.17;;;2.03;;
4885;SDS011;2457;51.788;6.136;2023-02-28T07:43:25;5.33;;;1.77;;
4885;SDS011;2457;51.788;6.136;2023-02-28T07:45:52;3.87;;;1.87;;
4885;SDS011;2457;51.788;6.136;2023-02-28T07:48:19;5.20;;;2.10;;
4885;SDS011;2457;51.788;6.136;2023-02-28T07:50:53;6.37;;;2.43;;
4885;SDS011;2457;51.788;6.136;2023-02-28T07:53:17;5.10;;;2.30;;
4885;SDS011;2457;51.788;6.136;2023-02-28T07:55:44;3.53;;;1.67;;
4885;SDS011;2457;51.788;6.136;2023-02-28T07:58:12;4.20;;;1.83;;
4885;SDS011;2457;51.788;6.136;2023-02-28T08:00:39;5.53;;;2.40;;
4885;SDS011;2457;51.788;6.136;2023-02-28T08:03:08;4.80;;;2.43;;
4885;SDS011;2457;51.788;6.136;2023-02-28T08:05:38;4.00;;;1.60;;
4885;SDS011;2457;51.788;6.136;2023-02-28T08:08:04;3.90;;;1.77;;
4885;SDS011;2457;51.788;6.136;2023-02-28T08:10:32;8.50;;;2.10;;
4885;SDS011;2457;51.788;6.136;2023-02-28T08:12:59;3.30;;;1.80;;
4885;SDS011;2457;51.788;6.136;2023-02-28T08:15:27;3.77;;;2.03;;
4885;SDS011;2457;51.788;6.136;2023-02-28T08:17:54;6.50;;;2.50;;
4885;SDS011;2457;51.788;6.136;2023-02-28T08:20:23;4.90;;;2.30;;
4885;SDS011;2457;51.788;6.136;2023-02-28T08:22:50;6.13;;;1.87;;
4885;SDS011;2457;51.788;6.136;2023-02-28T08:25:18;5.00;;;2.20;;
4885;SDS011;2457;51.788;6.136;2023-02-28T08:27:45;5.90;;;2.40;;
4885;SDS011;2457;51.788;6.136;2023-02-28T08:30:13;4.77;;;1.97;;
4885;SDS011;2457;51.788;6.136;2023-02-28T08:32:41;4.53;;;2.03;;
4885;SDS011;2457;51.788;6.136;2023-02-28T08:35:08;4.10;;;1.83;;
4885;SDS011;2457;51.788;6.136;2023-02-28T08:37:36;4.80;;;2.00;;
4885;SDS011;2457;51.788;6.136;2023-02-28T08:40:04;6.80;;;1.90;;
4885;SDS011;2457;51.788;6.136;2023-02-28T08:42:31;8.10;;;1.70;;
4885;SDS011;2457;51.788;6.136;2023-02-28T08:44:59;4.10;;;1.60;;
4885;SDS011;2457;51.788;6.136;2023-02-28T08:47:26;8.27;;;2.30;;
4885;SDS011;2457;51.788;6.136;2023-02-28T08:49:53;4.70;;;2.07;;
4885;SDS011;2457;51.788;6.136;2023-02-28T08:52:21;4.07;;;1.70;;
4885;SDS011;2457;51.788;6.136;2023-02-28T08:54:48;4.67;;;1.90;;
4885;SDS011;2457;51.788;6.136;2023-02-28T08:57:15;3.57;;;1.70;;
4885;SDS011;2457;51.788;6.136;2023-02-28T08:59:42;4.13;;;1.90;;
4885;SDS011;2457;51.788;6.136;2023-02-28T09:02:12;4.90;;;1.60;;
4885;SDS011;2457;51.788;6.136;2023-02-28T09:04:38;4.53;;;1.60;;
4885;SDS011;2457;51.788;6.136;2023-02-28T09:07:06;4.90;;;1.50;;
4885;SDS011;2457;51.788;6.136;2023-02-28T09:09:33;3.20;;;1.43;;
4885;SDS011;2457;51.788;6.136;2023-02-28T09:12:00;4.40;;;1.80;;
4885;SDS011;2457;51.788;6.136;2023-02-28T09:14:28;3.40;;;1.60;;
4885;SDS011;2457;51.788;6.136;2023-02-28T09:16:55;3.73;;;1.30;;
4885;SDS011;2457;51.788;6.136;2023-02-28T09:19:22;3.50;;;1.60;;
4885;SDS011;2457;51.788;6.136;2023-02-28T09:21:50;4.40;;;1.87;;
4885;SDS011;2457;51.788;6.136;2023-02-28T09:24:18;4.10;;;1.93;;
4885;SDS011;2457;51.788;6.136;2023-02-28T09:26:46;4.10;;;1.60;;
4885;SDS011;2457;51.788;6.136;2023-02-28T09:29:13;3.80;;;1.80;;
4885;SDS011;2457;51.788;6.136;2023-02-28T09:31:43;3.83;;;1.70;;
4885;SDS011;2457;51.788;6.136;2023-02-28T09:34:10;3.73;;;1.77;;
4885;SDS011;2457;51.788;6.136;2023-02-28T09:36:37;4.17;;;1.50;;
4885;SDS011;2457;51.788;6.136;2023-02-28T09:39:05;8.00;;;1.70;;
4885;SDS011;2457;51.788;6.136;2023-02-28T09:41:40;3.57;;;1.60;;
4885;SDS011;2457;51.788;6.136;2023-02-28T09:44:10;4.07;;;1.70;;
4885;SDS011;2457;51.788;6.136;2023-02-28T09:46:40;3.00;;;1.40;;
4885;SDS011;2457;51.788;6.136;2023-02-28T09:49:17;3.20;;;1.40;;
4885;SDS011;2457;51.788;6.136;2023-02-28T09:52:20;4.13;;;1.70;;
4885;SDS011;2457;51.788;6.136;2023-02-28T09:54:23;4.10;;;1.70;;
4885;SDS011;2457;51.788;6.136;2023-02-28T09:56:56;3.90;;;1.60;;
4885;SDS011;2457;51.788;6.136;2023-02-28T09:59:28;3.03;;;1.37;;
4885;SDS011;2457;51.788;6.136;2023-02-28T10:02:00;3.60;;;1.37;;
4885;SDS011;2457;51.788;6.136;2023-02-28T10:06:54;5.00;;;1.40;;
4885;SDS011;2457;51.788;6.136;2023-02-28T10:09:24;3.87;;;1.70;;
4885;SDS011;2457;51.788;6.136;2023-02-28T10:11:54;3.50;;;1.53;;
4885;SDS011;2457;51.788;6.136;2023-02-28T10:14:22;3.80;;;1.33;;
4885;SDS011;2457;51.788;6.136;2023-02-28T10:16:51;3.37;;;1.50;;
4885;SDS011;2457;51.788;6.136;2023-02-28T10:19:23;4.23;;;1.13;;
4885;SDS011;2457;51.788;6.136;2023-02-28T10:21:57;4.10;;;1.90;;
4885;SDS011;2457;51.788;6.136;2023-02-28T10:24:30;3.47;;;1.60;;
4885;SDS011;2457;51.788;6.136;2023-02-28T10:27:01;4.63;;;1.20;;
4885;SDS011;2457;51.788;6.136;2023-02-28T10:29:31;4.00;;;1.40;;
4885;SDS011;2457;51.788;6.136;2023-02-28T10:31:58;5.20;;;1.63;;
4885;SDS011;2457;51.788;6.136;2023-02-28T10:34:26;3.70;;;1.47;;
4885;SDS011;2457;51.788;6.136;2023-02-28T10:36:54;4.60;;;1.23;;
4885;SDS011;2457;51.788;6.136;2023-02-28T10:42:18;3.40;;;1.30;;
4885;SDS011;2457;51.788;6.136;2023-02-28T10:44:35;3.77;;;1.40;;
4885;SDS011;2457;51.788;6.136;2023-02-28T10:47:02;4.80;;;1.73;;
4885;SDS011;2457;51.788;6.136;2023-02-28T10:49:30;4.10;;;1.53;;
4885;SDS011;2457;51.788;6.136;2023-02-28T10:51:59;4.70;;;1.60;;
4885;SDS011;2457;51.788;6.136;2023-02-28T10:54:31;7.40;;;1.70;;
4885;SDS011;2457;51.788;6.136;2023-02-28T10:59:40;3.50;;;1.53;;
4885;SDS011;2457;51.788;6.136;2023-02-28T11:04:53;3.17;;;1.20;;
4885;SDS011;2457;51.788;6.136;2023-02-28T11:07:21;4.80;;;1.80;;
4885;SDS011;2457;51.788;6.136;2023-02-28T11:09:50;3.30;;;1.30;;
4885;SDS011;2457;51.788;6.136;2023-02-28T11:12:21;3.47;;;1.00;;
4885;SDS011;2457;51.788;6.136;2023-02-28T11:14:50;2.80;;;1.13;;
4885;SDS011;2457;51.788;6.136;2023-02-28T11:17:22;3.43;;;1.50;;
4885;SDS011;2457;51.788;6.136;2023-02-28T11:19:51;3.70;;;1.40;;
4885;SDS011;2457;51.788;6.136;2023-02-28T11:22:23;3.70;;;1.40;;
4885;SDS011;2457;51.788;6.136;2023-02-28T11:24:51;4.47;;;1.57;;
4885;SDS011;2457;51.788;6.136;2023-02-28T11:30:00;4.93;;;1.37;;
4885;SDS011;2457;51.788;6.136;2023-02-28T11:32:28;3.93;;;1.40;;
4885;SDS011;2457;51.788;6.136;2023-02-28T11:35:00;3.40;;;1.40;;
4885;SDS011;2457;51.788;6.136;2023-02-28T11:37:28;3.50;;;1.40;;
4885;SDS011;2457;51.788;6.136;2023-02-28T11:39:55;3.60;;;1.37;;
4885;SDS011;2457;51.788;6.136;2023-02-28T11:47:58;4.57;;;1.40;;
4885;SDS011;2457;51.788;6.136;2023-02-28T11:53:05;3.50;;;1.60;;
4885;SDS011;2457;51.788;6.136;2023-02-28T11:55:31;3.50;;;1.30;;
4885;SDS011;2457;51.788;6.136;2023-02-28T12:00:39;7.83;;;1.40;;
4885;SDS011;2457;51.788;6.136;2023-02-28T12:05:45;4.50;;;1.80;;
4885;SDS011;2457;51.788;6.136;2023-02-28T12:08:20;3.40;;;1.60;;
4885;SDS011;2457;51.788;6.136;2023-02-28T12:10:50;3.40;;;1.33;;
4885;SDS011;2457;51.788;6.136;2023-02-28T12:21:20;7.17;;;1.50;;
4885;SDS011;2457;51.788;6.136;2023-02-28T12:26:35;4.13;;;1.90;;
4885;SDS011;2457;51.788;6.136;2023-02-28T12:29:04;2.97;;;1.30;;
4885;SDS011;2457;51.788;6.136;2023-02-28T12:31:32;3.33;;;1.53;;
4885;SDS011;2457;51.788;6.136;2023-02-28T12:34:00;3.63;;;1.43;;
4885;SDS011;2457;51.788;6.136;2023-02-28T12:36:28;6.60;;;1.93;;
4885;SDS011;2457;51.788;6.136;2023-02-28T12:38:56;4.03;;;1.60;;
4885;SDS011;2457;51.788;6.136;2023-02-28T12:41:39;3.43;;;1.30;;
4885;SDS011;2457;51.788;6.136;2023-02-28T12:44:11;4.17;;;1.43;;
4885;SDS011;2457;51.788;6.136;2023-02-28T12:46:35;3.90;;;1.50;;
4885;SDS011;2457;51.788;6.136;2023-02-28T12:49:08;4.63;;;1.37;;
4885;SDS011;2457;51.788;6.136;2023-02-28T12:51:31;3.77;;;1.47;;
4885;SDS011;2457;51.788;6.136;2023-02-28T12:56:36;7.00;;;1.87;;
4885;SDS011;2457;51.788;6.136;2023-02-28T12:59:46;5.60;;;2.00;;
4885;SDS011;2457;51.788;6.136;2023-02-28T13:04:27;6.30;;;1.80;;
4885;SDS011;2457;51.788;6.136;2023-02-28T13:06:59;5.13;;;2.03;;
4885;SDS011;2457;51.788;6.136;2023-02-28T13:09:25;5.20;;;2.00;;
4885;SDS011;2457;51.788;6.136;2023-02-28T13:11:54;9.37;;;2.20;;
4885;SDS011;2457;51.788;6.136;2023-02-28T13:14:25;4.90;;;2.00;;
4885;SDS011;2457;51.788;6.136;2023-02-28T13:16:55;4.40;;;2.03;;
4885;SDS011;2457;51.788;6.136;2023-02-28T13:19:25;4.17;;;1.90;;
4885;SDS011;2457;51.788;6.136;2023-02-28T13:21:53;4.87;;;2.00;;
4885;SDS011;2457;51.788;6.136;2023-02-28T13:24:36;4.07;;;1.60;;
4885;SDS011;2457;51.788;6.136;2023-02-28T13:29:34;5.00;;;1.90;;
4885;SDS011;2457;51.788;6.136;2023-02-28T13:34:37;3.80;;;1.67;;
4885;SDS011;2457;51.788;6.136;2023-02-28T13:39:50;3.80;;;1.37;;
4885;SDS011;2457;51.788;6.136;2023-02-28T13:42:23;4.83;;;1.90;;
4885;SDS011;2457;51.788;6.136;2023-02-28T13:52:52;3.40;;;1.50;;
4885;SDS011;2457;51.788;6.136;2023-02-28T13:55:27;4.63;;;1.77;;
4885;SDS011;2457;51.788;6.136;2023-02-28T14:00:45;4.17;;;1.60;;
4885;SDS011;2457;51.788;6.136;2023-02-28T14:08:43;7.87;;;1.70;;
4885;SDS011;2457;51.788;6.136;2023-02-28T14:11:09;4.67;;;1.60;;
4885;SDS011;2457;51.788;6.136;2023-02-28T14:13:43;5.33;;;1.70;;
4885;SDS011;2457;51.788;6.136;2023-02-28T14:16:13;3.10;;;1.50;;
4885;SDS011;2457;51.788;6.136;2023-02-28T14:18:41;3.77;;;1.63;;
4885;SDS011;2457;51.788;6.136;2023-02-28T14:21:10;8.23;;;2.40;;
4885;SDS011;2457;51.788;6.136;2023-02-28T14:31:43;3.67;;;1.50;;
4885;SDS011;2457;51.788;6.136;2023-02-28T14:34:17;7.13;;;1.70;;
4885;SDS011;2457;51.788;6.136;2023-02-28T14:36:41;4.10;;;1.77;;
4885;SDS011;2457;51.788;6.136;2023-02-28T14:39:13;4.63;;;1.77;;
4885;SDS011;2457;51.788;6.136;2023-02-28T14:41:41;3.47;;;1.70;;
4885;SDS011;2457;51.788;6.136;2023-02-28T14:44:13;4.60;;;1.60;;
4885;SDS011;2457;51.788;6.136;2023-02-28T14:46:41;3.90;;;1.73;;
4885;SDS011;2457;51.788;6.136;2023-02-28T14:49:13;5.07;;;1.90;;
4885;SDS011;2457;51.788;6.136;2023-02-28T14:51:38;6.30;;;1.70;;
4885;SDS011;2457;51.788;6.136;2023-02-28T14:54:05;3.97;;;1.90;;
4885;SDS011;2457;51.788;6.136;2023-02-28T14:56:38;3.80;;;1.67;;
4885;SDS011;2457;51.788;6.136;2023-02-28T14:59:22;3.90;;;1.70;;
4885;SDS011;2457;51.788;6.136;2023-02-28T15:01:35;4.50;;;1.80;;
4885;SDS011;2457;51.788;6.136;2023-02-28T15:04:04;3.53;;;1.57;;
4885;SDS011;2457;51.788;6.136;2023-02-28T15:06:32;4.00;;;1.63;;
4885;SDS011;2457;51.788;6.136;2023-02-28T15:09:16;3.80;;;1.63;;
4885;SDS011;2457;51.788;6.136;2023-02-28T15:11:47;3.97;;;2.00;;
4885;SDS011;2457;51.788;6.136;2023-02-28T15:14:20;3.40;;;1.50;;
4885;SDS011;2457;51.788;6.136;2023-02-28T15:16:50;4.80;;;1.93;;
4885;SDS011;2457;51.788;6.136;2023-02-28T15:19:19;3.63;;;1.80;;
4885;SDS011;2457;51.788;6.136;2023-02-28T15:21:46;3.30;;;1.50;;
4885;SDS011;2457;51.788;6.136;2023-02-28T15:26:55;4.27;;;1.70;;
4885;SDS011;2457;51.788;6.136;2023-02-28T15:29:24;3.80;;;1.80;;
4885;SDS011;2457;51.788;6.136;2023-02-28T15:31:56;3.23;;;1.63;;
4885;SDS011;2457;51.788;6.136;2023-02-28T15:34:29;3.50;;;1.80;;
4885;SDS011;2457;51.788;6.136;2023-02-28T15:36:56;3.10;;;1.60;;
4885;SDS011;2457;51.788;6.136;2023-02-28T15:39:26;5.37;;;1.80;;
4885;SDS011;2457;51.788;6.136;2023-02-28T15:42:10;3.67;;;1.57;;
4885;SDS011;2457;51.788;6.136;2023-02-28T15:44:38;3.47;;;1.30;;
4885;SDS011;2457;51.788;6.136;2023-02-28T15:49:58;5.10;;;1.97;;
4885;SDS011;2457;51.788;6.136;2023-02-28T15:55:11;5.40;;;2.10;;
4885;SDS011;2457;51.788;6.136;2023-02-28T15:57:39;8.60;;;1.80;;
4885;SDS011;2457;51.788;6.136;2023-02-28T16:00:09;3.17;;;1.47;;
4885;SDS011;2457;51.788;6.136;2023-02-28T16:02:36;3.30;;;1.60;;
4885;SDS011;2457;51.788;6.136;2023-02-28T16:07:39;3.90;;;1.67;;
4885;SDS011;2457;51.788;6.136;2023-02-28T16:10:07;4.27;;;1.77;;
4885;SDS011;2457;51.788;6.136;2023-02-28T16:12:36;3.57;;;1.73;;
4885;SDS011;2457;51.788;6.136;2023-02-28T16:15:14;4.10;;;2.00;;
4885;SDS011;2457;51.788;6.136;2023-02-28T16:17:37;4.47;;;1.93;;
4885;SDS011;2457;51.788;6.136;2023-02-28T16:20:01;8.93;;;1.70;;
4885;SDS011;2457;51.788;6.136;2023-02-28T16:22:30;4.00;;;1.63;;
4885;SDS011;2457;51.788;6.136;2023-02-28T16:24:57;4.07;;;1.87;;
4885;SDS011;2457;51.788;6.136;2023-02-28T16:27:26;6.07;;;2.20;;
4885;SDS011;2457;51.788;6.136;2023-02-28T16:29:53;7.80;;;1.97;;
4885;SDS011;2457;51.788;6.136;2023-02-28T16:32:20;4.80;;;2.00;;
4885;SDS011;2457;51.788;6.136;2023-02-28T16:34:48;4.20;;;1.80;;
4885;SDS011;2457;51.788;6.136;2023-02-28T16:37:16;4.77;;;1.87;;
4885;SDS011;2457;51.788;6.136;2023-02-28T16:39:44;3.20;;;1.60;;
4885;SDS011;2457;51.788;6.136;2023-02-28T16:42:16;3.60;;;2.03;;
4885;SDS011;2457;51.788;6.136;2023-02-28T16:44:43;3.37;;;1.67;;
4885;SDS011;2457;51.788;6.136;2023-02-28T16:47:10;3.97;;;2.13;;
4885;SDS011;2457;51.788;6.136;2023-02-28T16:49:38;4.60;;;2.00;;
4885;SDS011;2457;51.788;6.136;2023-02-28T16:52:07;4.83;;;1.80;;
4885;SDS011;2457;51.788;6.136;2023-02-28T16:54:35;6.23;;;2.00;;
4885;SDS011;2457;51.788;6.136;2023-02-28T16:57:02;4.23;;;1.90;;
4885;SDS011;2457;51.788;6.136;2023-02-28T16:59:29;5.60;;;2.07;;
4885;SDS011;2457;51.788;6.136;2023-02-28T17:01:56;7.20;;;1.80;;
4885;SDS011;2457;51.788;6.136;2023-02-28T17:04:25;4.23;;;1.67;;
4885;SDS011;2457;51.788;6.136;2023-02-28T17:06:52;4.40;;;2.43;;
4885;SDS011;2457;51.788;6.136;2023-02-28T17:09:21;5.87;;;2.30;;
4885;SDS011;2457;51.788;6.136;2023-02-28T17:11:48;4.10;;;1.90;;